createdAt,value
2019-04-25T00:00:48.736Z,10.80
2019-04-25T00:03:22.304Z,10.80
2019-04-25T00:05:52.291Z,10.80
2019-04-25T00:08:21.538Z,10.80
2019-04-25T00:10:51.646Z,10.80
2019-04-25T00:13:21.792Z,10.70
2019-04-25T00:15:51.848Z,10.70
2019-04-25T00:18:22.099Z,10.70
2019-04-25T00:20:55.564Z,10.70
2019-04-25T00:23:24.111Z,10.70
2019-04-25T00:26:11.311Z,10.70
2019-04-25T00:28:42.031Z,10.60
2019-04-25T00:31:11.975Z,10.70
2019-04-25T00:33:41.354Z,10.70
2019-04-25T00:36:12.059Z,10.60
2019-04-25T00:38:42.919Z,10.70
2019-04-25T00:41:11.632Z,10.70
2019-04-25T00:43:42.182Z,10.70
2019-04-25T00:46:11.433Z,10.70
2019-04-25T00:48:41.498Z,10.80
2019-04-25T00:51:11.762Z,10.70
2019-04-25T00:53:41.808Z,10.70
2019-04-25T00:56:11.264Z,10.70
2019-04-25T00:58:51.399Z,10.70
2019-04-25T01:01:31.737Z,10.70
2019-04-25T01:04:01.955Z,10.70
2019-04-25T01:06:31.926Z,10.70
2019-04-25T01:09:01.504Z,10.70
2019-04-25T01:11:31.402Z,10.70
2019-04-25T01:13:59.913Z,10.70
2019-04-25T01:16:28.427Z,10.80
2019-04-25T01:18:57.633Z,10.80
2019-04-25T01:21:26.224Z,10.70
2019-04-25T01:23:54.719Z,10.80
2019-04-25T01:26:23.970Z,10.80
2019-04-25T01:28:54.052Z,10.90
2019-04-25T01:31:24.895Z,10.90
2019-04-25T01:33:54.638Z,10.90
2019-04-25T01:36:41.801Z,10.90
2019-04-25T01:39:28.497Z,10.90
2019-04-25T01:41:58.789Z,10.90
2019-04-25T01:44:28.905Z,10.90
2019-04-25T01:46:58.228Z,10.90
2019-04-25T01:49:26.964Z,10.90
2019-04-25T01:51:57.465Z,10.90
2019-04-25T01:54:25.908Z,10.90
2019-04-25T01:56:56.116Z,10.90
2019-04-25T01:59:24.708Z,10.90
2019-04-25T02:01:54.573Z,10.90
2019-04-25T02:04:23.487Z,10.90
2019-04-25T02:06:54.331Z,10.80
2019-04-25T02:09:23.320Z,10.80
2019-04-25T02:11:54.765Z,10.80
2019-04-25T02:14:24.174Z,10.80
2019-04-25T02:16:55.043Z,10.70
2019-04-25T02:19:24.179Z,10.70
2019-04-25T02:21:55.102Z,10.70
2019-04-25T02:24:23.698Z,10.70
2019-04-25T02:26:54.820Z,10.70
2019-04-25T02:29:23.512Z,10.60
2019-04-25T02:31:54.679Z,10.60
2019-04-25T02:34:24.854Z,10.60
2019-04-25T02:36:55.546Z,10.60
2019-04-25T02:39:24.556Z,10.60
2019-04-25T02:41:56.016Z,10.50
2019-04-25T02:44:24.731Z,10.50
2019-04-25T02:47:00.523Z,10.50
2019-04-25T02:49:45.277Z,10.50
2019-04-25T02:52:21.376Z,10.50
2019-04-25T02:54:49.842Z,10.50
2019-04-25T02:57:18.305Z,10.50
2019-04-25T02:59:46.832Z,10.50
2019-04-25T03:02:36.766Z,10.60
2019-04-25T03:05:07.866Z,10.60
2019-04-25T03:07:35.894Z,10.70
2019-04-25T03:10:09.367Z,10.80
2019-04-25T03:12:37.517Z,10.80
2019-04-25T03:15:09.721Z,10.90
2019-04-25T03:17:36.979Z,11.00
2019-04-25T03:20:17.349Z,11.00
2019-04-25T03:22:45.904Z,11.10
2019-04-25T03:25:17.397Z,11.10
2019-04-25T03:27:44.924Z,11.10
2019-04-25T03:30:17.387Z,11.10
2019-04-25T03:32:45.028Z,11.10
2019-04-25T03:35:14.540Z,11.00
2019-04-25T03:37:43.630Z,11.00
2019-04-25T03:40:13.935Z,11.00
2019-04-25T03:42:43.893Z,11.00
2019-04-25T03:45:14.003Z,11.00
2019-04-25T03:47:43.223Z,11.00
2019-04-25T03:50:13.821Z,11.00
2019-04-25T03:52:43.571Z,10.90
2019-04-25T03:55:14.240Z,10.90
2019-04-25T03:57:44.300Z,10.90
2019-04-25T04:00:14.565Z,10.90
2019-04-25T04:02:44.289Z,10.90
2019-04-25T04:05:32.456Z,10.90
2019-04-25T04:08:00.912Z,10.90
2019-04-25T04:10:29.448Z,10.90
2019-04-25T04:12:58.716Z,10.90
2019-04-25T04:15:27.324Z,11.00
2019-04-25T04:18:14.657Z,11.00
2019-04-25T04:20:53.557Z,11.00
2019-04-25T04:23:26.455Z,11.00
2019-04-25T04:25:54.915Z,11.00
2019-04-25T04:28:23.663Z,11.00
2019-04-25T04:30:54.042Z,11.00
2019-04-25T04:33:30.212Z,10.90
2019-04-25T04:35:54.333Z,10.90
2019-04-25T04:38:24.086Z,10.90
2019-04-25T04:40:52.688Z,10.90
2019-04-25T04:43:21.181Z,10.90
2019-04-25T04:45:49.852Z,10.80
2019-04-25T04:48:18.867Z,10.80
2019-04-25T04:50:47.570Z,10.80
2019-04-25T04:53:17.147Z,10.90
2019-04-25T04:55:45.765Z,10.90
2019-04-25T04:58:14.996Z,10.90
2019-04-25T05:00:44.764Z,10.90
2019-04-25T05:03:34.305Z,10.90
2019-04-25T05:06:04.687Z,10.90
2019-04-25T05:08:37.331Z,11.00
2019-04-25T05:11:05.802Z,11.00
2019-04-25T05:13:34.379Z,11.10
2019-04-25T05:16:03.296Z,11.10
2019-04-25T05:18:37.563Z,11.20
2019-04-25T05:21:02.240Z,11.20
2019-04-25T05:23:30.709Z,11.30
2019-04-25T05:25:59.258Z,11.40
2019-04-25T05:28:27.831Z,11.50
2019-04-25T05:30:58.195Z,11.50
2019-04-25T05:33:26.677Z,11.60
2019-04-25T05:35:55.182Z,11.70
2019-04-25T05:38:24.319Z,11.80
2019-04-25T05:40:55.319Z,11.90
2019-04-25T05:43:25.813Z,12.00
2019-04-25T05:45:54.589Z,12.00
2019-04-25T05:48:25.043Z,12.10
2019-04-25T05:50:53.812Z,12.20
2019-04-25T05:53:23.872Z,12.20
2019-04-25T05:55:54.064Z,12.30
2019-04-25T05:58:24.585Z,12.40
2019-04-25T06:00:54.310Z,12.50
2019-04-25T06:03:24.855Z,12.60
2019-04-25T06:05:53.437Z,12.80
2019-04-25T06:08:26.448Z,12.80
2019-04-25T06:10:56.432Z,12.90
2019-04-25T06:13:35.480Z,13.10
2019-04-25T06:16:05.657Z,13.40
2019-04-25T06:18:35.776Z,13.50
2019-04-25T06:21:05.799Z,13.50
2019-04-25T06:23:54.480Z,13.50
2019-04-25T06:26:34.118Z,13.50
2019-04-25T06:28:59.032Z,13.60
2019-04-25T06:31:26.484Z,13.70
2019-04-25T06:33:54.307Z,13.80
2019-04-25T06:36:24.292Z,13.90
2019-04-25T06:38:54.168Z,14.00
2019-04-25T06:41:24.682Z,14.10
2019-04-25T06:43:54.756Z,14.20
2019-04-25T06:46:27.767Z,14.40
2019-04-25T06:48:58.372Z,14.50
2019-04-25T06:51:46.139Z,14.70
2019-04-25T06:54:14.744Z,14.80
2019-04-25T06:56:43.526Z,14.80
2019-04-25T06:59:13.594Z,14.90
2019-04-25T07:02:01.648Z,15.00
2019-04-25T07:04:30.166Z,15.10
2019-04-25T07:07:10.477Z,15.00
2019-04-25T07:09:34.517Z,15.10
2019-04-25T07:12:03.439Z,15.10
2019-04-25T07:14:33.861Z,15.20
2019-04-25T07:17:04.218Z,15.20
2019-04-25T07:19:34.304Z,15.20
2019-04-25T07:22:03.905Z,15.20
2019-04-25T07:24:35.185Z,15.30
2019-04-25T07:27:10.670Z,15.20
2019-04-25T07:29:56.040Z,15.30
2019-04-25T07:32:29.679Z,15.30
2019-04-25T07:34:56.390Z,15.30
2019-04-25T07:37:25.946Z,15.30
2019-04-25T07:39:54.648Z,15.30
2019-04-25T07:42:23.848Z,15.30
2019-04-25T07:44:54.933Z,15.30
2019-04-25T07:47:24.262Z,15.30
2019-04-25T07:49:54.136Z,15.40
2019-04-25T07:52:23.434Z,15.40
2019-04-25T07:54:52.038Z,15.50
2019-04-25T07:57:20.590Z,15.60
2019-04-25T07:59:51.574Z,15.70
2019-04-25T08:02:19.331Z,15.80
2019-04-25T08:04:47.971Z,16.00
2019-04-25T08:07:16.500Z,16.10
2019-04-25T08:09:45.028Z,16.20
2019-04-25T08:12:13.649Z,15.90
2019-04-25T08:14:45.900Z,15.90
2019-04-25T08:17:18.777Z,15.90
2019-04-25T08:19:47.578Z,16.00
2019-04-25T08:22:16.168Z,16.10
2019-04-25T08:24:45.223Z,16.40
2019-04-25T08:27:13.681Z,16.50
2019-04-25T08:29:42.216Z,16.60
2019-04-25T08:32:10.790Z,16.60
2019-04-25T08:34:39.414Z,16.70
2019-04-25T08:37:17.358Z,16.80
2019-04-25T08:39:57.500Z,16.90
2019-04-25T08:42:25.957Z,17.10
2019-04-25T08:44:54.413Z,17.20
2019-04-25T08:47:24.326Z,16.90
2019-04-25T08:49:54.607Z,17.00
2019-04-25T08:52:24.315Z,17.00
2019-04-25T08:55:00.441Z,16.70
2019-04-25T08:57:46.768Z,16.70
2019-04-25T09:00:18.068Z,16.80
2019-04-25T09:02:48.172Z,17.00
2019-04-25T09:05:19.192Z,17.20
2019-04-25T09:07:47.786Z,17.30
2019-04-25T09:10:16.251Z,17.40
2019-04-25T09:12:45.366Z,17.50
2019-04-25T09:15:15.024Z,17.50
2019-04-25T09:17:44.459Z,17.40
2019-04-25T09:20:14.378Z,17.30
2019-04-25T09:22:44.554Z,17.40
2019-04-25T09:25:34.541Z,17.50
2019-04-25T09:28:04.388Z,17.70
2019-04-25T09:30:34.959Z,17.80
2019-04-25T09:33:04.610Z,17.90
2019-04-25T09:35:33.569Z,18.00
2019-04-25T09:38:03.366Z,18.10
2019-04-25T09:40:32.153Z,18.20
2019-04-25T09:43:01.189Z,18.20
2019-04-25T09:45:31.356Z,18.40
2019-04-25T09:48:03.126Z,18.30
2019-04-25T09:50:39.677Z,18.40
2019-04-25T09:53:15.461Z,18.50
2019-04-25T09:55:47.183Z,18.60
2019-04-25T09:58:18.403Z,18.70
2019-04-25T10:00:48.670Z,18.90
2019-04-25T10:03:17.183Z,18.70
2019-04-25T10:05:46.808Z,18.50
2019-04-25T10:08:15.572Z,18.40
2019-04-25T10:10:44.650Z,18.50
2019-04-25T10:13:13.325Z,18.60
2019-04-25T10:15:51.137Z,18.60
2019-04-25T10:18:19.822Z,18.80
2019-04-25T10:20:49.423Z,19.00
2019-04-25T10:23:18.606Z,19.10
2019-04-25T10:25:48.415Z,19.00
2019-04-25T10:28:17.303Z,19.10
2019-04-25T10:30:46.850Z,19.30
2019-04-25T10:33:17.028Z,19.40
2019-04-25T10:35:51.987Z,19.20
2019-04-25T10:38:15.871Z,19.30
2019-04-25T10:40:47.400Z,19.50
2019-04-25T10:43:16.250Z,19.50
2019-04-25T10:45:46.312Z,19.30
2019-04-25T10:48:15.806Z,19.50
2019-04-25T10:50:45.934Z,19.50
2019-04-25T10:53:14.703Z,19.80
2019-04-25T10:55:44.066Z,20.00
2019-04-25T10:58:14.081Z,20.00
2019-04-25T11:00:46.205Z,20.30
2019-04-25T11:03:33.717Z,20.30
2019-04-25T11:06:03.925Z,20.20
2019-04-25T11:08:34.065Z,20.60
2019-04-25T11:11:24.148Z,20.60
2019-04-25T11:13:55.662Z,20.80
2019-04-25T11:16:24.347Z,20.70
2019-04-25T11:18:54.800Z,20.80
2019-04-25T11:21:24.307Z,20.80
2019-04-25T11:23:55.080Z,20.80
2019-04-25T11:26:23.542Z,20.90
2019-04-25T11:28:52.137Z,20.70
2019-04-25T11:31:23.506Z,20.90
2019-04-25T11:33:54.395Z,20.90
2019-04-25T11:36:24.808Z,21.10
2019-04-25T11:38:57.655Z,20.90
2019-04-25T11:41:26.268Z,20.60
2019-04-25T11:43:55.660Z,20.30
2019-04-25T11:46:25.156Z,19.90
2019-04-25T11:48:54.837Z,19.90
2019-04-25T11:51:24.145Z,19.50
2019-04-25T11:53:54.591Z,19.30
2019-04-25T11:56:24.135Z,19.10
2019-04-25T11:58:54.143Z,19.20
2019-04-25T12:01:24.372Z,19.00
2019-04-25T12:03:54.869Z,19.20
2019-04-25T12:06:24.316Z,19.30
2019-04-25T12:08:54.184Z,19.20
2019-04-25T12:11:23.653Z,19.40
2019-04-25T12:13:53.815Z,19.60
2019-04-25T12:16:24.527Z,19.40
2019-04-25T12:18:55.314Z,19.50
2019-04-25T12:21:23.969Z,19.90
2019-04-25T12:23:52.753Z,19.90
2019-04-25T12:26:21.290Z,20.00
2019-04-25T12:28:49.776Z,20.00
2019-04-25T12:31:18.346Z,20.20
2019-04-25T12:33:48.650Z,20.20
2019-04-25T12:36:17.239Z,20.10
2019-04-25T12:38:46.121Z,20.20
2019-04-25T12:41:14.679Z,20.30
2019-04-25T12:43:54.579Z,20.20
2019-04-25T12:46:34.622Z,20.30
2019-04-25T12:49:02.592Z,20.20
2019-04-25T12:51:31.129Z,20.30
2019-04-25T12:53:59.728Z,19.90
2019-04-25T12:56:28.233Z,19.90
2019-04-25T12:58:56.694Z,19.90
2019-04-25T13:01:25.247Z,19.80
2019-04-25T13:03:55.078Z,19.80
2019-04-25T13:06:23.938Z,19.90
2019-04-25T13:08:54.123Z,19.90
2019-04-25T13:11:23.939Z,19.70
2019-04-25T13:13:52.590Z,19.80
2019-04-25T13:16:21.152Z,19.80
2019-04-25T13:18:49.990Z,19.80
2019-04-25T13:21:18.590Z,19.80
2019-04-25T13:23:47.129Z,19.80
2019-04-25T13:26:17.355Z,19.80
2019-04-25T13:28:50.175Z,19.90
2019-04-25T13:31:26.346Z,19.90
2019-04-25T13:33:57.299Z,19.80
2019-04-25T13:36:25.987Z,20.00
2019-04-25T13:38:54.503Z,20.00
2019-04-25T13:41:23.574Z,19.90
2019-04-25T13:43:53.261Z,20.10
2019-04-25T13:46:25.862Z,20.10
2019-04-25T13:48:54.254Z,20.10
2019-04-25T13:51:24.494Z,20.10
2019-04-25T13:53:54.524Z,20.10
2019-04-25T13:56:25.874Z,20.00
2019-04-25T13:58:54.242Z,20.00
2019-04-25T14:01:24.661Z,19.80
2019-04-25T14:03:54.245Z,19.70
2019-04-25T14:06:23.926Z,19.90
2019-04-25T14:08:53.434Z,20.00
2019-04-25T14:11:23.970Z,19.80
2019-04-25T14:13:52.547Z,19.80
2019-04-25T14:16:26.755Z,20.10
2019-04-25T14:18:59.770Z,20.10
2019-04-25T14:21:29.239Z,20.20
2019-04-25T14:23:57.963Z,20.10
2019-04-25T14:26:27.076Z,20.40
2019-04-25T14:28:55.613Z,20.50
2019-04-25T14:31:41.260Z,20.80
2019-04-25T14:33:55.444Z,20.90
2019-04-25T14:36:25.796Z,21.50
2019-04-25T14:38:54.410Z,21.90
2019-04-25T14:41:23.807Z,21.80
2019-04-25T14:43:52.535Z,21.70
2019-04-25T14:46:21.267Z,22.20
2019-04-25T14:48:50.317Z,22.30
2019-04-25T14:51:18.974Z,22.60
2019-04-25T14:53:47.517Z,23.20
2019-04-25T14:56:26.670Z,24.00
2019-04-25T14:58:55.251Z,24.50
2019-04-25T15:01:24.449Z,24.00
2019-04-25T15:03:52.984Z,23.90
2019-04-25T15:06:21.676Z,24.40
2019-04-25T15:08:50.277Z,24.30
2019-04-25T15:11:18.842Z,24.60
2019-04-25T15:13:47.346Z,24.60
2019-04-25T15:16:15.821Z,23.90
2019-04-25T15:18:46.856Z,24.40
2019-04-25T15:21:14.651Z,24.70
2019-04-25T15:23:43.128Z,24.70
2019-04-25T15:26:11.591Z,25.00
2019-04-25T15:28:40.947Z,24.50
2019-04-25T15:31:09.569Z,24.90
2019-04-25T15:33:38.041Z,25.30
2019-04-25T15:36:08.514Z,25.60
2019-04-25T15:38:46.251Z,25.40
2019-04-25T15:41:19.586Z,24.80
2019-04-25T15:43:49.694Z,24.20
2019-04-25T15:46:22.726Z,23.80
2019-04-25T15:48:51.561Z,23.60
2019-04-25T15:51:20.180Z,23.00
2019-04-25T15:53:48.771Z,22.40
2019-04-25T15:56:17.483Z,22.00
2019-04-25T15:58:46.043Z,22.00
2019-04-25T16:01:14.534Z,21.70
2019-04-25T16:03:43.161Z,21.40
2019-04-25T16:06:11.787Z,21.50
2019-04-25T16:08:40.329Z,21.30
2019-04-25T16:11:08.962Z,21.00
2019-04-25T16:13:37.557Z,20.90
2019-04-25T16:16:06.439Z,20.80
2019-04-25T16:18:54.366Z,21.10
2019-04-25T16:21:22.905Z,20.80
2019-04-25T16:23:51.455Z,20.70
2019-04-25T16:26:20.200Z,20.60
2019-04-25T16:28:48.742Z,20.60
2019-04-25T16:31:19.197Z,20.30
2019-04-25T16:33:48.060Z,20.20
2019-04-25T16:36:16.927Z,20.20
2019-04-25T16:38:45.524Z,20.20
2019-04-25T16:41:14.637Z,20.20
2019-04-25T16:43:44.800Z,20.20
2019-04-25T16:46:14.631Z,20.20
2019-04-25T16:48:43.232Z,20.10
2019-04-25T16:51:12.029Z,20.00
2019-04-25T16:53:40.499Z,20.00
2019-04-25T16:56:09.372Z,20.00
2019-04-25T16:58:38.638Z,19.80
2019-04-25T17:01:09.067Z,19.80
2019-04-25T17:03:37.803Z,19.80
2019-04-25T17:06:06.610Z,19.80
2019-04-25T17:08:35.697Z,19.80
2019-04-25T17:11:05.940Z,19.70
2019-04-25T17:13:36.271Z,19.80
2019-04-25T17:16:18.727Z,19.80
2019-04-25T17:18:51.792Z,20.00
2019-04-25T17:21:20.313Z,20.30
2019-04-25T17:23:48.838Z,20.20
2019-04-25T17:26:18.837Z,20.40
2019-04-25T17:28:49.078Z,20.30
2019-04-25T17:34:16.638Z,19.60
2019-04-25T17:36:52.959Z,19.40
2019-04-25T17:39:23.189Z,19.30
2019-04-25T17:41:51.693Z,19.20
2019-04-25T17:44:20.181Z,19.10
2019-04-25T17:46:48.809Z,19.00
2019-04-25T17:49:17.367Z,19.10
2019-04-25T17:51:45.841Z,18.90
2019-04-25T17:54:14.515Z,18.70
2019-04-25T17:56:43.083Z,18.80
2019-04-25T17:59:11.575Z,18.50
2019-04-25T18:01:40.227Z,18.40
2019-04-25T18:04:08.838Z,18.30
2019-04-25T18:06:37.686Z,18.30
2019-04-25T18:09:07.513Z,18.10
2019-04-25T18:11:36.222Z,18.00
2019-04-25T18:14:05.019Z,17.80
2019-04-25T18:16:38.203Z,17.80
2019-04-25T18:19:08.516Z,17.60
2019-04-25T18:21:37.086Z,17.40
2019-04-25T18:24:19.819Z,17.20
2019-04-25T18:26:58.980Z,17.10
2019-04-25T18:29:27.627Z,16.90
2019-04-25T18:31:56.133Z,16.90
2019-04-25T18:34:26.522Z,16.80
2019-04-25T18:37:11.478Z,16.70
2019-04-25T18:39:41.980Z,16.60
2019-04-25T18:42:12.325Z,16.50
2019-04-25T18:44:41.943Z,16.40
2019-04-25T18:47:10.459Z,16.30
2019-04-25T18:49:40.436Z,16.20
2019-04-25T18:52:10.773Z,16.10
2019-04-25T18:54:52.958Z,16.00
2019-04-25T18:57:29.197Z,15.90
2019-04-25T18:59:59.313Z,15.80
2019-04-25T19:02:35.645Z,15.60
2019-04-25T19:05:22.411Z,15.60
2019-04-25T19:07:51.792Z,15.50
2019-04-25T19:10:20.616Z,15.40
2019-04-25T19:12:49.182Z,15.40
2019-04-25T19:15:17.857Z,15.30
2019-04-25T19:17:47.309Z,15.20
2019-04-25T19:20:16.096Z,15.20
2019-04-25T19:22:44.564Z,15.10
2019-04-25T19:25:13.279Z,15.10
2019-04-25T19:27:42.092Z,15.10
2019-04-25T19:30:12.725Z,15.00
2019-04-25T19:32:41.686Z,14.90
2019-04-25T19:35:11.189Z,14.90
2019-04-25T19:37:40.526Z,14.80
2019-04-25T19:40:23.310Z,14.80
2019-04-25T19:43:03.391Z,14.70
2019-04-25T19:45:33.366Z,14.70
2019-04-25T19:48:02.019Z,14.60
2019-04-25T19:50:30.630Z,14.60
2019-04-25T19:52:59.217Z,14.50
2019-04-25T19:55:27.694Z,14.40
2019-04-25T19:57:56.238Z,14.40
2019-04-25T20:00:24.916Z,14.30
2019-04-25T20:02:57.792Z,14.20
2019-04-25T20:05:30.816Z,14.20
2019-04-25T20:08:14.612Z,14.10
2019-04-25T20:10:45.082Z,14.10
2019-04-25T20:13:13.783Z,14.00
2019-04-25T20:15:44.057Z,13.90
2019-04-25T20:18:14.252Z,13.90
2019-04-25T20:20:43.624Z,13.90
2019-04-25T20:23:12.951Z,13.90
2019-04-25T20:25:41.478Z,13.80
2019-04-25T20:28:09.980Z,13.80
2019-04-25T20:30:38.602Z,13.70
2019-04-25T20:33:07.181Z,13.70
2019-04-25T20:35:35.743Z,13.70
2019-04-25T20:38:04.537Z,13.70
2019-04-25T20:40:33.057Z,13.60
2019-04-25T20:43:01.601Z,13.50
2019-04-25T20:45:30.346Z,13.40
2019-04-25T20:47:58.943Z,13.30
2019-04-25T20:50:27.480Z,13.30
2019-04-25T20:52:55.944Z,13.30
2019-04-25T20:55:24.455Z,13.20
2019-04-25T20:57:53.273Z,13.10
2019-04-25T21:00:43.939Z,13.10
2019-04-25T21:03:12.587Z,13.10
2019-04-25T21:05:41.477Z,13.00
2019-04-25T21:08:10.070Z,12.90
2019-04-25T21:10:38.615Z,12.90
2019-04-25T21:13:08.784Z,12.80
2019-04-25T21:15:54.416Z,12.80
2019-04-25T21:18:30.655Z,12.70
2019-04-25T21:20:59.241Z,12.70
2019-04-25T21:23:27.789Z,12.60
2019-04-25T21:25:56.954Z,12.50
2019-04-25T21:28:25.702Z,12.50
2019-04-25T21:30:54.789Z,12.50
2019-04-25T21:33:23.426Z,12.40
2019-04-25T21:35:53.257Z,12.40
2019-04-25T21:38:22.120Z,12.40
2019-04-25T21:40:53.023Z,12.30
2019-04-25T21:43:27.440Z,12.30
2019-04-25T21:45:56.273Z,12.30
2019-04-25T21:48:25.160Z,12.20
2019-04-25T21:50:54.976Z,12.20
2019-04-25T21:53:23.470Z,12.10
2019-04-25T21:55:53.227Z,12.00
2019-04-25T21:58:22.432Z,11.90
2019-04-25T22:00:56.578Z,11.80
2019-04-25T22:03:26.675Z,11.80
2019-04-25T22:05:56.730Z,11.90
2019-04-25T22:08:25.598Z,11.90
2019-04-25T22:10:55.806Z,11.90
2019-04-25T22:13:24.960Z,11.90
2019-04-25T22:15:53.835Z,11.70
2019-04-25T22:18:43.058Z,11.50
2019-04-25T22:21:12.046Z,11.40
2019-04-25T22:23:41.065Z,11.30
2019-04-25T22:26:09.955Z,11.30
2019-04-25T22:28:38.930Z,11.20
2019-04-25T22:31:09.422Z,10.90
2019-04-25T22:33:55.595Z,10.80
2019-04-25T22:36:27.925Z,10.70
2019-04-25T22:39:12.244Z,10.70
2019-04-25T22:41:46.456Z,10.70
2019-04-25T22:44:16.029Z,10.80
2019-04-25T22:46:45.011Z,10.70
2019-04-25T22:49:13.714Z,10.60
2019-04-25T22:51:42.171Z,10.40
2019-04-25T22:54:11.786Z,10.30
2019-04-25T22:56:40.580Z,10.20
2019-04-25T22:59:09.474Z,10.20
2019-04-25T23:01:51.596Z,10.10
2019-04-25T23:04:38.253Z,10.10
2019-04-25T23:07:10.096Z,10.10
2019-04-25T23:09:39.232Z,10.10
2019-04-25T23:12:08.712Z,10.10
2019-04-25T23:14:37.774Z,10.20
2019-04-25T23:17:07.344Z,10.20
2019-04-25T23:19:35.888Z,10.20
2019-04-25T23:22:05.638Z,10.30
2019-04-25T23:24:35.834Z,10.30
2019-04-25T23:27:09.838Z,10.30
2019-04-25T23:29:38.618Z,10.30
2019-04-25T23:32:08.494Z,10.30
2019-04-25T23:34:37.131Z,10.30
2019-04-25T23:37:06.276Z,10.30
2019-04-25T23:39:35.929Z,10.30
2019-04-25T23:42:05.947Z,10.30
2019-04-25T23:44:34.712Z,10.30
2019-04-25T23:47:03.536Z,10.30
2019-04-25T23:49:32.126Z,10.30
2019-04-25T23:52:00.862Z,10.30
2019-04-25T23:54:29.344Z,10.20
2019-04-25T23:56:58.252Z,10.20
2019-04-25T23:59:27.055Z,10.20
